Check out our new PWSWeather beta!
PWSweather.com
Personal Weather Stations
Station Observations
GIVE2LIVE
Alvarado, TX

Alvarado, TX

Lat: 32.426536, Lon: -97.222215

Elevation: 777

Station Type: Davis Vantage Pro2 / Cumulus

Latest ConditionsUpdated 12:00:00 PM CST Monday, Feb 24, 2020
Currently Today's Max Today's Min Today's Average
Temperature 65.4°F18.6°C 65.4°F18.6°C 51.4°F10.8°C 57.3°F14.1°C
Dew Point 45.2°F7.3°C 59.1°F15.1°C 42.7°F5.9°C 50.4°F10.2°C
Winds 13.0 mph WNW20.9 kmh WNW 14.0 mph -22.5 kmh - - 8.4 mph 13.5 kmh
Wind Gusts 22.0 mph35.4 kmh 26.0 mph41.8 kmh - -
Humidity 48% 95% 48% 79%
Pressure 29.76 in1007.8 mb 29.79 in1008.8 mb 29.71 in1006.1 mb -
Hour Temp Dew Point Humidity Winds Wind Gusts Pressure Precip Precip Rate Daily Precip Total
12:00 PM 65.4°F18.6°C 45.2°F7.3°C 48% 13.0 mph WNW20.9 kmh WNW 22.0 mph35.4 kmh 29.76 in1007.8 mb 0.00 in0.0 mm 0.00 in0.0 mm 0.00 in0.0 mm
11:55 AM 65.0°F18.3°C 45.4°F7.4°C 49% 13.0 mph WNW20.9 kmh WNW 22.0 mph35.4 kmh 29.76 in1007.8 mb 0.00 in0.0 mm 0.00 in0.0 mm 0.00 in0.0 mm
11:50 AM 64.4°F18.0°C 44.3°F6.8°C 48% 13.0 mph W20.9 kmh W 20.0 mph32.2 kmh 29.76 in1007.8 mb 0.00 in0.0 mm 0.00 in0.0 mm 0.00 in0.0 mm
11:45 AM 64.6°F18.1°C 44.5°F6.9°C 48% 13.0 mph WNW20.9 kmh WNW 25.0 mph40.2 kmh 29.76 in1007.8 mb 0.00 in0.0 mm 0.00 in0.0 mm 0.00 in0.0 mm
11:40 AM 64.4°F18.0°C 44.8°F7.1°C 49% 13.0 mph WNW20.9 kmh WNW 25.0 mph40.2 kmh 29.77 in1008.1 mb 0.00 in0.0 mm 0.00 in0.0 mm 0.00 in0.0 mm
11:35 AM 63.9°F17.7°C 45.4°F7.4°C 51% 14.0 mph WNW22.5 kmh WNW 23.0 mph37.0 kmh 29.77 in1008.1 mb 0.00 in0.0 mm 0.00 in0.0 mm 0.00 in0.0 mm
11:30 AM 63.4°F17.4°C 43.9°F6.6°C 49% 14.0 mph W22.5 kmh W 24.0 mph38.6 kmh 29.77 in1008.1 mb 0.00 in0.0 mm 0.00 in0.0 mm 0.00 in0.0 mm
11:25 AM 62.9°F17.2°C 43.4°F6.3°C 49% 14.0 mph W22.5 kmh W 24.0 mph38.6 kmh 29.77 in1008.1 mb 0.00 in0.0 mm 0.00 in0.0 mm 0.00 in0.0 mm
11:20 AM 62.7°F17.1°C 43.8°F6.6°C 50% 12.0 mph W19.3 kmh W 23.0 mph37.0 kmh 29.77 in1008.1 mb 0.00 in0.0 mm 0.00 in0.0 mm 0.00 in0.0 mm
11:15 AM 62.6°F17.0°C 45.2°F7.3°C 53% 13.0 mph W20.9 kmh W 24.0 mph38.6 kmh 29.78 in1008.5 mb 0.00 in0.0 mm 0.00 in0.0 mm 0.00 in0.0 mm
11:10 AM 61.9°F16.6°C 43.6°F6.4°C 51% 13.0 mph W20.9 kmh W 24.0 mph38.6 kmh 29.78 in1008.5 mb 0.00 in0.0 mm 0.00 in0.0 mm 0.00 in0.0 mm
11:05 AM 61.7°F16.5°C 43.9°F6.6°C 52% 13.0 mph W20.9 kmh W 22.0 mph35.4 kmh 29.78 in1008.5 mb 0.00 in0.0 mm 0.00 in0.0 mm 0.00 in0.0 mm
11:00 AM 61.6°F16.4°C 43.8°F6.6°C 52% 11.0 mph W17.7 kmh W 22.0 mph35.4 kmh 29.78 in1008.5 mb 0.00 in0.0 mm 0.00 in0.0 mm 0.00 in0.0 mm
10:55 AM 61.2°F16.2°C 43.9°F6.6°C 53% 11.0 mph W17.7 kmh W 21.0 mph33.8 kmh 29.77 in1008.1 mb 0.00 in0.0 mm 0.00 in0.0 mm 0.00 in0.0 mm
10:50 AM 60.5°F15.8°C 43.8°F6.6°C 54% 11.0 mph W17.7 kmh W 21.0 mph33.8 kmh 29.77 in1008.1 mb 0.00 in0.0 mm 0.00 in0.0 mm 0.00 in0.0 mm
10:45 AM 60.3°F15.7°C 44.5°F6.9°C 56% 12.0 mph W19.3 kmh W 19.0 mph30.6 kmh 29.77 in1008.1 mb 0.00 in0.0 mm 0.00 in0.0 mm 0.00 in0.0 mm
10:40 AM 59.7°F15.4°C 43.5°F6.4°C 55% 13.0 mph W20.9 kmh W 23.0 mph37.0 kmh 29.77 in1008.1 mb 0.00 in0.0 mm 0.00 in0.0 mm 0.00 in0.0 mm
10:35 AM 59.4°F15.2°C 43.2°F6.2°C 55% 13.0 mph W20.9 kmh W 26.0 mph41.8 kmh 29.77 in1008.1 mb 0.00 in0.0 mm 0.00 in0.0 mm 0.00 in0.0 mm
10:30 AM 59.2°F15.1°C 43.5°F6.4°C 56% 13.0 mph W20.9 kmh W 26.0 mph41.8 kmh 29.78 in1008.5 mb 0.00 in0.0 mm 0.00 in0.0 mm 0.00 in0.0 mm
10:25 AM 58.8°F14.9°C 43.6°F6.4°C 57% 13.0 mph W20.9 kmh W 22.0 mph35.4 kmh 29.77 in1008.1 mb 0.00 in0.0 mm 0.00 in0.0 mm 0.00 in0.0 mm
10:20 AM 58.2°F14.6°C 43.9°F6.6°C 59% 12.0 mph W19.3 kmh W 20.0 mph32.2 kmh 29.77 in1008.1 mb 0.00 in0.0 mm 0.00 in0.0 mm 0.00 in0.0 mm
10:15 AM 58.1°F14.5°C 42.9°F6.1°C 57% 12.0 mph W19.3 kmh W 20.0 mph32.2 kmh 29.77 in1008.1 mb 0.00 in0.0 mm 0.00 in0.0 mm 0.00 in0.0 mm
10:10 AM 58.2°F14.6°C 43.5°F6.4°C 58% 11.0 mph W17.7 kmh W 18.0 mph29.0 kmh 29.77 in1008.1 mb 0.00 in0.0 mm 0.00 in0.0 mm 0.00 in0.0 mm
10:05 AM 58.1°F14.5°C 44.7°F7.1°C 61% 11.0 mph W17.7 kmh W 17.0 mph27.4 kmh 29.78 in1008.5 mb 0.00 in0.0 mm 0.00 in0.0 mm 0.00 in0.0 mm
10:00 AM 57.5°F14.2°C 43.7°F6.5°C 60% 12.0 mph W19.3 kmh W 23.0 mph37.0 kmh 29.78 in1008.5 mb 0.00 in0.0 mm 0.00 in0.0 mm 0.00 in0.0 mm
09:55 AM 56.8°F13.8°C 43.5°F6.4°C 61% 13.0 mph WNW20.9 kmh WNW 23.0 mph37.0 kmh 29.78 in1008.5 mb 0.00 in0.0 mm 0.00 in0.0 mm 0.00 in0.0 mm
09:50 AM 56.4°F13.6°C 42.7°F5.9°C 60% 12.0 mph W19.3 kmh W 23.0 mph37.0 kmh 29.78 in1008.5 mb 0.00 in0.0 mm 0.00 in0.0 mm 0.00 in0.0 mm
09:45 AM 56.1°F13.4°C 43.3°F6.3°C 62% 12.0 mph W19.3 kmh W 20.0 mph32.2 kmh 29.78 in1008.5 mb 0.00 in0.0 mm 0.00 in0.0 mm 0.00 in0.0 mm
09:40 AM 55.9°F13.3°C 43.1°F6.2°C 62% 13.0 mph W20.9 kmh W 20.0 mph32.2 kmh 29.78 in1008.5 mb 0.00 in0.0 mm 0.00 in0.0 mm 0.00 in0.0 mm
09:35 AM 55.5°F13.1°C 43.5°F6.4°C 64% 11.0 mph W17.7 kmh W 22.0 mph35.4 kmh 29.78 in1008.5 mb 0.00 in0.0 mm 0.00 in0.0 mm 0.00 in0.0 mm
09:30 AM 55.1°F12.8°C 43.1°F6.2°C 64% 11.0 mph W17.7 kmh W 23.0 mph37.0 kmh 29.78 in1008.5 mb 0.00 in0.0 mm 0.00 in0.0 mm 0.00 in0.0 mm
09:25 AM 54.6°F12.6°C 43.1°F6.2°C 65% 11.0 mph W17.7 kmh W 23.0 mph37.0 kmh 29.78 in1008.5 mb 0.00 in0.0 mm 0.00 in0.0 mm 0.00 in0.0 mm
09:20 AM 54.5°F12.5°C 43.4°F6.3°C 66% 10.0 mph W16.1 kmh W 20.0 mph32.2 kmh 29.78 in1008.5 mb 0.00 in0.0 mm 0.00 in0.0 mm 0.00 in0.0 mm
09:15 AM 54.3°F12.4°C 43.2°F6.2°C 66% 10.0 mph W16.1 kmh W 20.0 mph32.2 kmh 29.78 in1008.5 mb 0.00 in0.0 mm 0.00 in0.0 mm 0.00 in0.0 mm
09:10 AM 54.2°F12.3°C 43.1°F6.2°C 66% 10.0 mph W16.1 kmh W 20.0 mph32.2 kmh 29.78 in1008.5 mb 0.00 in0.0 mm 0.00 in0.0 mm 0.00 in0.0 mm
09:05 AM 53.8°F12.1°C 43.1°F6.2°C 67% 9.0 mph W14.5 kmh W 17.0 mph27.4 kmh 29.78 in1008.5 mb 0.00 in0.0 mm 0.00 in0.0 mm 0.00 in0.0 mm
09:00 AM 53.5°F11.9°C 43.2°F6.2°C 68% 9.0 mph W14.5 kmh W 15.0 mph24.1 kmh 29.78 in1008.5 mb 0.00 in0.0 mm 0.00 in0.0 mm 0.00 in0.0 mm
08:55 AM 53.3°F11.8°C 43.4°F6.3°C 69% 9.0 mph W14.5 kmh W 15.0 mph24.1 kmh 29.78 in1008.5 mb 0.00 in0.0 mm 0.00 in0.0 mm 0.00 in0.0 mm
08:50 AM 52.8°F11.6°C 43.3°F6.3°C 70% 10.0 mph W16.1 kmh W 17.0 mph27.4 kmh 29.79 in1008.8 mb 0.00 in0.0 mm 0.00 in0.0 mm 0.00 in0.0 mm
08:45 AM 52.6°F11.4°C 43.1°F6.2°C 70% 10.0 mph W16.1 kmh W 17.0 mph27.4 kmh 29.79 in1008.8 mb 0.00 in0.0 mm 0.00 in0.0 mm 0.00 in0.0 mm
08:40 AM 52.4°F11.3°C 43.3°F6.3°C 71% 10.0 mph W16.1 kmh W 15.0 mph24.1 kmh 29.79 in1008.8 mb 0.00 in0.0 mm 0.00 in0.0 mm 0.00 in0.0 mm
08:35 AM 52.4°F11.3°C 42.9°F6.1°C 70% 10.0 mph W16.1 kmh W 17.0 mph27.4 kmh 29.78 in1008.5 mb 0.00 in0.0 mm 0.00 in0.0 mm 0.00 in0.0 mm
08:30 AM 52.4°F11.3°C 43.3°F6.3°C 71% 10.0 mph W16.1 kmh W 21.0 mph33.8 kmh 29.78 in1008.5 mb 0.00 in0.0 mm 0.00 in0.0 mm 0.00 in0.0 mm
08:25 AM 52.4°F11.3°C 43.3°F6.3°C 71% 10.0 mph W16.1 kmh W 21.0 mph33.8 kmh 29.78 in1008.5 mb 0.00 in0.0 mm 0.00 in0.0 mm 0.00 in0.0 mm
08:20 AM 52.3°F11.3°C 43.5°F6.4°C 72% 9.0 mph W14.5 kmh W 15.0 mph24.1 kmh 29.78 in1008.5 mb 0.00 in0.0 mm 0.00 in0.0 mm 0.00 in0.0 mm
08:15 AM 52.3°F11.3°C 43.5°F6.4°C 72% 9.0 mph W14.5 kmh W 15.0 mph24.1 kmh 29.78 in1008.5 mb 0.00 in0.0 mm 0.00 in0.0 mm 0.00 in0.0 mm
08:10 AM 52.2°F11.2°C 43.4°F6.3°C 72% 8.0 mph W12.9 kmh W 15.0 mph24.1 kmh 29.78 in1008.5 mb 0.00 in0.0 mm 0.00 in0.0 mm 0.00 in0.0 mm
08:05 AM 52.1°F11.2°C 43.3°F6.3°C 72% 9.0 mph W14.5 kmh W 16.0 mph25.7 kmh 29.78 in1008.5 mb 0.00 in0.0 mm 0.00 in0.0 mm 0.00 in0.0 mm
08:00 AM 51.9°F11.1°C 43.5°F6.4°C 73% 9.0 mph W14.5 kmh W 16.0 mph25.7 kmh 29.78 in1008.5 mb 0.00 in0.0 mm 0.00 in0.0 mm 0.00 in0.0 mm
07:55 AM 51.7°F10.9°C 43.3°F6.3°C 73% 9.0 mph W14.5 kmh W 16.0 mph25.7 kmh 29.78 in1008.5 mb 0.00 in0.0 mm 0.00 in0.0 mm 0.00 in0.0 mm
07:50 AM 51.5°F10.8°C 43.1°F6.2°C 73% 9.0 mph W14.5 kmh W 16.0 mph25.7 kmh 29.77 in1008.1 mb 0.00 in0.0 mm 0.00 in0.0 mm 0.00 in0.0 mm
07:45 AM 51.4°F10.8°C 43.4°F6.3°C 74% 8.0 mph W12.9 kmh W 14.0 mph22.5 kmh 29.77 in1008.1 mb 0.00 in0.0 mm 0.00 in0.0 mm 0.00 in0.0 mm
07:40 AM 51.4°F10.8°C 43.4°F6.3°C 74% 8.0 mph W12.9 kmh W 14.0 mph22.5 kmh 29.77 in1008.1 mb 0.00 in0.0 mm 0.00 in0.0 mm 0.00 in0.0 mm
07:35 AM 51.4°F10.8°C 43.4°F6.3°C 74% 8.0 mph W12.9 kmh W 15.0 mph24.1 kmh 29.77 in1008.1 mb 0.00 in0.0 mm 0.00 in0.0 mm 0.00 in0.0 mm
07:30 AM 51.4°F10.8°C 43.4°F6.3°C 74% 7.0 mph W11.3 kmh W 15.0 mph24.1 kmh 29.77 in1008.1 mb 0.00 in0.0 mm 0.00 in0.0 mm 0.00 in0.0 mm
07:25 AM 51.5°F10.8°C 43.5°F6.4°C 74% 7.0 mph W11.3 kmh W 16.0 mph25.7 kmh 29.77 in1008.1 mb 0.00 in0.0 mm 0.00 in0.0 mm 0.00 in0.0 mm
07:20 AM 51.7°F10.9°C 43.3°F6.3°C 73% 8.0 mph W12.9 kmh W 16.0 mph25.7 kmh 29.77 in1008.1 mb 0.00 in0.0 mm 0.00 in0.0 mm 0.00 in0.0 mm
07:15 AM 51.8°F11.0°C 43.8°F6.6°C 74% 9.0 mph W14.5 kmh W 16.0 mph25.7 kmh 29.77 in1008.1 mb 0.00 in0.0 mm 0.00 in0.0 mm 0.00 in0.0 mm
07:10 AM 52.0°F11.1°C 44.0°F6.7°C 74% 9.0 mph W14.5 kmh W 18.0 mph29.0 kmh 29.77 in1008.1 mb 0.00 in0.0 mm 0.00 in0.0 mm 0.00 in0.0 mm
07:05 AM 52.1°F11.2°C 44.1°F6.7°C 74% 8.0 mph WNW12.9 kmh WNW 18.0 mph29.0 kmh 29.77 in1008.1 mb 0.00 in0.0 mm 0.00 in0.0 mm 0.00 in0.0 mm
07:00 AM 52.2°F11.2°C 44.2°F6.8°C 74% 7.0 mph WNW11.3 kmh WNW 15.0 mph24.1 kmh 29.77 in1008.1 mb 0.00 in0.0 mm 0.00 in0.0 mm 0.00 in0.0 mm
06:55 AM 52.5°F11.4°C 44.4°F6.9°C 74% 7.0 mph WNW11.3 kmh WNW 13.0 mph20.9 kmh 29.77 in1008.1 mb 0.00 in0.0 mm 0.00 in0.0 mm 0.00 in0.0 mm
06:50 AM 53.0°F11.7°C 44.9°F7.2°C 74% 8.0 mph WNW12.9 kmh WNW 14.0 mph22.5 kmh 29.77 in1008.1 mb 0.00 in0.0 mm 0.00 in0.0 mm 0.00 in0.0 mm
06:45 AM 53.5°F11.9°C 45.1°F7.3°C 73% 10.0 mph W16.1 kmh W 20.0 mph32.2 kmh 29.77 in1008.1 mb 0.00 in0.0 mm 0.00 in0.0 mm 0.00 in0.0 mm
06:40 AM 54.0°F12.2°C 45.2°F7.3°C 72% 11.0 mph W17.7 kmh W 20.0 mph32.2 kmh 29.77 in1008.1 mb 0.00 in0.0 mm 0.00 in0.0 mm 0.00 in0.0 mm
06:35 AM 54.4°F12.4°C 45.9°F7.7°C 73% 11.0 mph W17.7 kmh W 20.0 mph32.2 kmh 29.77 in1008.1 mb 0.00 in0.0 mm 0.00 in0.0 mm 0.00 in0.0 mm
06:30 AM 54.8°F12.7°C 46.3°F7.9°C 73% 12.0 mph W19.3 kmh W 21.0 mph33.8 kmh 29.76 in1007.8 mb 0.00 in0.0 mm 0.00 in0.0 mm 0.00 in0.0 mm
06:25 AM 55.1°F12.8°C 47.0°F8.3°C 74% 12.0 mph W19.3 kmh W 21.0 mph33.8 kmh 29.76 in1007.8 mb 0.00 in0.0 mm 0.00 in0.0 mm 0.00 in0.0 mm
06:20 AM 55.1°F12.8°C 47.7°F8.7°C 76% 9.0 mph W14.5 kmh W 21.0 mph33.8 kmh 29.76 in1007.8 mb 0.00 in0.0 mm 0.00 in0.0 mm 0.00 in0.0 mm
06:15 AM 55.0°F12.8°C 48.3°F9.1°C 78% 6.0 mph W9.7 kmh W 15.0 mph24.1 kmh 29.75 in1007.5 mb 0.00 in0.0 mm 0.00 in0.0 mm 0.00 in0.0 mm
06:10 AM 55.3°F12.9°C 48.9°F9.4°C 79% 7.0 mph W11.3 kmh W 13.0 mph20.9 kmh 29.75 in1007.5 mb 0.00 in0.0 mm 0.00 in0.0 mm 0.00 in0.0 mm
06:05 AM 55.4°F13.0°C 49.0°F9.4°C 79% 7.0 mph W11.3 kmh W 13.0 mph20.9 kmh 29.74 in1007.1 mb 0.00 in0.0 mm 0.00 in0.0 mm 0.00 in0.0 mm
06:00 AM 55.4°F13.0°C 49.3°F9.6°C 80% 7.0 mph W11.3 kmh W 14.0 mph22.5 kmh 29.74 in1007.1 mb 0.00 in0.0 mm 0.00 in0.0 mm 0.00 in0.0 mm
05:55 AM 55.4°F13.0°C 50.0°F10.0°C 82% 5.0 mph W8.0 kmh W 14.0 mph22.5 kmh 29.74 in1007.1 mb 0.00 in0.0 mm 0.00 in0.0 mm 0.00 in0.0 mm
05:50 AM 55.3°F12.9°C 50.2°F10.1°C 83% 4.0 mph WSW6.4 kmh WSW 10.0 mph16.1 kmh 29.74 in1007.1 mb 0.00 in0.0 mm 0.00 in0.0 mm 0.00 in0.0 mm
05:45 AM 55.4°F13.0°C 50.6°F10.3°C 84% 4.0 mph WSW6.4 kmh WSW 10.0 mph16.1 kmh 29.74 in1007.1 mb 0.00 in0.0 mm 0.00 in0.0 mm 0.00 in0.0 mm
05:40 AM 55.3°F12.9°C 51.2°F10.7°C 86% 3.0 mph WSW4.8 kmh WSW 10.0 mph16.1 kmh 29.74 in1007.1 mb 0.00 in0.0 mm 0.00 in0.0 mm 0.00 in0.0 mm
05:35 AM 55.4°F13.0°C 51.6°F10.9°C 87% 3.0 mph WSW4.8 kmh WSW 11.0 mph17.7 kmh 29.74 in1007.1 mb 0.00 in0.0 mm 0.00 in0.0 mm 0.00 in0.0 mm
05:30 AM 55.5°F13.1°C 52.0°F11.1°C 88% 3.0 mph WSW4.8 kmh WSW 11.0 mph17.7 kmh 29.74 in1007.1 mb 0.00 in0.0 mm 0.00 in0.0 mm 0.00 in0.0 mm
05:25 AM 55.6°F13.1°C 52.4°F11.3°C 89% 3.0 mph WSW4.8 kmh WSW 8.0 mph12.9 kmh 29.74 in1007.1 mb 0.00 in0.0 mm 0.00 in0.0 mm 0.00 in0.0 mm
05:20 AM 55.7°F13.2°C 52.5°F11.4°C 89% 3.0 mph WSW4.8 kmh WSW 8.0 mph12.9 kmh 29.74 in1007.1 mb 0.00 in0.0 mm 0.00 in0.0 mm 0.00 in0.0 mm
05:15 AM 55.9°F13.3°C 52.7°F11.5°C 89% 3.0 mph SW4.8 kmh SW 8.0 mph12.9 kmh 29.74 in1007.1 mb 0.00 in0.0 mm 0.00 in0.0 mm 0.00 in0.0 mm
05:10 AM 56.0°F13.3°C 53.1°F11.7°C 90% 3.0 mph WSW4.8 kmh WSW 9.0 mph14.5 kmh 29.74 in1007.1 mb 0.00 in0.0 mm 0.00 in0.0 mm 0.00 in0.0 mm
05:05 AM 56.1°F13.4°C 53.2°F11.8°C 90% 3.0 mph WSW4.8 kmh WSW 9.0 mph14.5 kmh 29.73 in1006.8 mb 0.00 in0.0 mm 0.00 in0.0 mm 0.00 in0.0 mm
05:00 AM 56.3°F13.5°C 53.7°F12.1°C 91% 3.0 mph WSW4.8 kmh WSW 10.0 mph16.1 kmh 29.73 in1006.8 mb 0.00 in0.0 mm 0.00 in0.0 mm 0.00 in0.0 mm
04:55 AM 56.5°F13.6°C 53.9°F12.2°C 91% 3.0 mph WSW4.8 kmh WSW 10.0 mph16.1 kmh 29.73 in1006.8 mb 0.00 in0.0 mm 0.00 in0.0 mm 0.00 in0.0 mm
04:50 AM 56.6°F13.7°C 54.3°F12.4°C 92% 4.0 mph WSW6.4 kmh WSW 10.0 mph16.1 kmh 29.73 in1006.8 mb 0.00 in0.0 mm 0.00 in0.0 mm 0.00 in0.0 mm
04:45 AM 56.7°F13.7°C 54.4°F12.4°C 92% 4.0 mph SW6.4 kmh SW 10.0 mph16.1 kmh 29.73 in1006.8 mb 0.00 in0.0 mm 0.00 in0.0 mm 0.00 in0.0 mm
04:40 AM 56.7°F13.7°C 54.7°F12.6°C 93% 3.0 mph SW4.8 kmh SW 9.0 mph14.5 kmh 29.73 in1006.8 mb 0.00 in0.0 mm 0.00 in0.0 mm 0.00 in0.0 mm
04:35 AM 56.7°F13.7°C 54.7°F12.6°C 93% 4.0 mph SW6.4 kmh SW 9.0 mph14.5 kmh 29.73 in1006.8 mb 0.00 in0.0 mm 0.00 in0.0 mm 0.00 in0.0 mm
04:30 AM 56.8°F13.8°C 55.1°F12.8°C 94% 5.0 mph SW8.0 kmh SW 12.0 mph19.3 kmh 29.73 in1006.8 mb 0.00 in0.0 mm 0.00 in0.0 mm 0.00 in0.0 mm
04:25 AM 56.9°F13.8°C 55.2°F12.9°C 94% 5.0 mph SW8.0 kmh SW 12.0 mph19.3 kmh 29.72 in1006.4 mb 0.00 in0.0 mm 0.00 in0.0 mm 0.00 in0.0 mm
04:20 AM 57.1°F13.9°C 55.4°F13.0°C 94% 5.0 mph SW8.0 kmh SW 12.0 mph19.3 kmh 29.71 in1006.1 mb 0.00 in0.0 mm 0.00 in0.0 mm 0.00 in0.0 mm
04:15 AM 57.3°F14.1°C 55.6°F13.1°C 94% 5.0 mph SW8.0 kmh SW 11.0 mph17.7 kmh 29.72 in1006.4 mb 0.00 in0.0 mm 0.00 in0.0 mm 0.00 in0.0 mm
04:10 AM 57.5°F14.2°C 56.1°F13.4°C 95% 5.0 mph SW8.0 kmh SW 12.0 mph19.3 kmh 29.71 in1006.1 mb 0.00 in0.0 mm 0.00 in0.0 mm 0.00 in0.0 mm
04:05 AM 57.7°F14.3°C 56.3°F13.5°C 95% 6.0 mph SW9.7 kmh SW 14.0 mph22.5 kmh 29.72 in1006.4 mb 0.00 in0.0 mm 0.00 in0.0 mm 0.00 in0.0 mm
04:00 AM 57.8°F14.3°C 56.4°F13.6°C 95% 6.0 mph SSW9.7 kmh SSW 14.0 mph22.5 kmh 29.72 in1006.4 mb 0.00 in0.0 mm 0.00 in0.0 mm 0.00 in0.0 mm
03:55 AM 57.9°F14.4°C 56.5°F13.6°C 95% 6.0 mph SSW9.7 kmh SSW 12.0 mph19.3 kmh 29.72 in1006.4 mb 0.00 in0.0 mm 0.00 in0.0 mm 0.00 in0.0 mm
03:50 AM 58.0°F14.4°C 56.6°F13.7°C 95% 5.0 mph SSW8.0 kmh SSW 12.0 mph19.3 kmh 29.72 in1006.4 mb 0.00 in0.0 mm 0.00 in0.0 mm 0.00 in0.0 mm
03:45 AM 58.0°F14.4°C 56.6°F13.7°C 95% 5.0 mph SW8.0 kmh SW 10.0 mph16.1 kmh 29.72 in1006.4 mb 0.00 in0.0 mm 0.00 in0.0 mm 0.00 in0.0 mm
03:40 AM 58.1°F14.5°C 56.7°F13.7°C 95% 5.0 mph SW8.0 kmh SW 12.0 mph19.3 kmh 29.72 in1006.4 mb 0.00 in0.0 mm 0.00 in0.0 mm 0.00 in0.0 mm
03:35 AM 58.3°F14.6°C 56.9°F13.8°C 95% 6.0 mph SSW9.7 kmh SSW 12.0 mph19.3 kmh 29.72 in1006.4 mb 0.00 in0.0 mm 0.00 in0.0 mm 0.00 in0.0 mm
03:30 AM 58.3°F14.6°C 56.9°F13.8°C 95% 6.0 mph SSW9.7 kmh SSW 12.0 mph19.3 kmh 29.72 in1006.4 mb 0.00 in0.0 mm 0.00 in0.0 mm 0.00 in0.0 mm
03:25 AM 58.4°F14.7°C 57.0°F13.9°C 95% 6.0 mph SSW9.7 kmh SSW 12.0 mph19.3 kmh 29.72 in1006.4 mb 0.00 in0.0 mm 0.00 in0.0 mm 0.00 in0.0 mm
03:20 AM 58.5°F14.7°C 57.1°F13.9°C 95% 6.0 mph SSW9.7 kmh SSW 13.0 mph20.9 kmh 29.72 in1006.4 mb 0.00 in0.0 mm 0.00 in0.0 mm 0.00 in0.0 mm
03:15 AM 58.6°F14.8°C 57.2°F14.0°C 95% 6.0 mph SSW9.7 kmh SSW 14.0 mph22.5 kmh 29.73 in1006.8 mb 0.00 in0.0 mm 0.00 in0.0 mm 0.00 in0.0 mm
03:10 AM 58.7°F14.8°C 57.3°F14.1°C 95% 6.0 mph SSW9.7 kmh SSW 14.0 mph22.5 kmh 29.73 in1006.8 mb 0.00 in0.0 mm 0.00 in0.0 mm 0.00 in0.0 mm
03:05 AM 58.7°F14.8°C 57.3°F14.1°C 95% 6.0 mph S9.7 kmh S 14.0 mph22.5 kmh 29.73 in1006.8 mb 0.00 in0.0 mm 0.00 in0.0 mm 0.00 in0.0 mm
03:00 AM 58.9°F14.9°C 57.5°F14.2°C 95% 6.0 mph SSW9.7 kmh SSW 13.0 mph20.9 kmh 29.73 in1006.8 mb 0.00 in0.0 mm 0.00 in0.0 mm 0.00 in0.0 mm
02:55 AM 59.0°F15.0°C 57.6°F14.2°C 95% 7.0 mph SSW11.3 kmh SSW 16.0 mph25.7 kmh 29.73 in1006.8 mb 0.00 in0.0 mm 0.00 in0.0 mm 0.00 in0.0 mm
02:50 AM 59.1°F15.1°C 57.7°F14.3°C 95% 6.0 mph SSW9.7 kmh SSW 16.0 mph25.7 kmh 29.73 in1006.8 mb 0.00 in0.0 mm 0.00 in0.0 mm 0.00 in0.0 mm
02:45 AM 59.2°F15.1°C 57.8°F14.3°C 95% 6.0 mph SSW9.7 kmh SSW 16.0 mph25.7 kmh 29.74 in1007.1 mb 0.00 in0.0 mm 0.00 in0.0 mm 0.00 in0.0 mm
02:40 AM 59.4°F15.2°C 58.0°F14.4°C 95% 7.0 mph SSW11.3 kmh SSW 16.0 mph25.7 kmh 29.74 in1007.1 mb 0.00 in0.0 mm 0.00 in0.0 mm 0.00 in0.0 mm
02:35 AM 59.5°F15.3°C 58.1°F14.5°C 95% 7.0 mph SSW11.3 kmh SSW 15.0 mph24.1 kmh 29.74 in1007.1 mb 0.00 in0.0 mm 0.00 in0.0 mm 0.00 in0.0 mm
02:30 AM 59.7°F15.4°C 58.3°F14.6°C 95% 7.0 mph SSW11.3 kmh SSW 15.0 mph24.1 kmh 29.74 in1007.1 mb 0.00 in0.0 mm 0.00 in0.0 mm 0.00 in0.0 mm
02:25 AM 59.7°F15.4°C 58.3°F14.6°C 95% 6.0 mph SSW9.7 kmh SSW 12.0 mph19.3 kmh 29.74 in1007.1 mb 0.00 in0.0 mm 0.00 in0.0 mm 0.00 in0.0 mm
02:20 AM 59.8°F15.4°C 58.4°F14.7°C 95% 7.0 mph SSW11.3 kmh SSW 15.0 mph24.1 kmh 29.75 in1007.5 mb 0.00 in0.0 mm 0.00 in0.0 mm 0.00 in0.0 mm
02:15 AM 59.9°F15.5°C 58.5°F14.7°C 95% 7.0 mph SSW11.3 kmh SSW 17.0 mph27.4 kmh 29.75 in1007.5 mb 0.00 in0.0 mm 0.00 in0.0 mm 0.00 in0.0 mm
02:10 AM 59.9°F15.5°C 58.5°F14.7°C 95% 7.0 mph SSW11.3 kmh SSW 17.0 mph27.4 kmh 29.75 in1007.5 mb 0.00 in0.0 mm 0.00 in0.0 mm 0.00 in0.0 mm
02:05 AM 59.9°F15.5°C 58.5°F14.7°C 95% 8.0 mph SSW12.9 kmh SSW 16.0 mph25.7 kmh 29.75 in1007.5 mb 0.00 in0.0 mm 0.00 in0.0 mm 0.00 in0.0 mm
02:00 AM 60.0°F15.6°C 58.6°F14.8°C 95% 8.0 mph SSW12.9 kmh SSW 17.0 mph27.4 kmh 29.75 in1007.5 mb 0.00 in0.0 mm 0.00 in0.0 mm 0.00 in0.0 mm
01:55 AM 60.0°F15.6°C 58.6°F14.8°C 95% 8.0 mph SSW12.9 kmh SSW 18.0 mph29.0 kmh 29.75 in1007.5 mb 0.00 in0.0 mm 0.00 in0.0 mm 0.00 in0.0 mm
01:50 AM 60.2°F15.7°C 58.8°F14.9°C 95% 8.0 mph SSW12.9 kmh SSW 18.0 mph29.0 kmh 29.76 in1007.8 mb 0.00 in0.0 mm 0.00 in0.0 mm 0.00 in0.0 mm
01:45 AM 60.2°F15.7°C 58.8°F14.9°C 95% 8.0 mph SSW12.9 kmh SSW 17.0 mph27.4 kmh 29.76 in1007.8 mb 0.00 in0.0 mm 0.00 in0.0 mm 0.00 in0.0 mm
01:40 AM 60.3°F15.7°C 58.9°F14.9°C 95% 8.0 mph SSW12.9 kmh SSW 19.0 mph30.6 kmh 29.76 in1007.8 mb 0.00 in0.0 mm 0.00 in0.0 mm 0.00 in0.0 mm
01:35 AM 60.3°F15.7°C 58.9°F14.9°C 95% 9.0 mph SSW14.5 kmh SSW 19.0 mph30.6 kmh 29.76 in1007.8 mb 0.00 in0.0 mm 0.00 in0.0 mm 0.00 in0.0 mm
01:30 AM 60.4°F15.8°C 59.0°F15.0°C 95% 9.0 mph SSW14.5 kmh SSW 19.0 mph30.6 kmh 29.76 in1007.8 mb 0.00 in0.0 mm 0.00 in0.0 mm 0.00 in0.0 mm
01:25 AM 60.5°F15.8°C 59.1°F15.1°C 95% 9.0 mph S14.5 kmh S 19.0 mph30.6 kmh 29.76 in1007.8 mb 0.00 in0.0 mm 0.00 in0.0 mm 0.00 in0.0 mm
01:20 AM 60.5°F15.8°C 59.1°F15.1°C 95% 9.0 mph S14.5 kmh S 17.0 mph27.4 kmh 29.76 in1007.8 mb 0.00 in0.0 mm 0.00 in0.0 mm 0.00 in0.0 mm
01:15 AM 60.5°F15.8°C 59.1°F15.1°C 95% 9.0 mph SSW14.5 kmh SSW 21.0 mph33.8 kmh 29.76 in1007.8 mb 0.00 in0.0 mm 0.00 in0.0 mm 0.00 in0.0 mm
01:10 AM 60.5°F15.8°C 59.1°F15.1°C 95% 9.0 mph S14.5 kmh S 21.0 mph33.8 kmh 29.76 in1007.8 mb 0.00 in0.0 mm 0.00 in0.0 mm 0.00 in0.0 mm
01:05 AM 60.5°F15.8°C 59.1°F15.1°C 95% 10.0 mph S16.1 kmh S 20.0 mph32.2 kmh 29.76 in1007.8 mb 0.00 in0.0 mm 0.00 in0.0 mm 0.00 in0.0 mm
01:00 AM 60.5°F15.8°C 59.1°F15.1°C 95% 9.0 mph S14.5 kmh S 20.0 mph32.2 kmh 29.77 in1008.1 mb 0.00 in0.0 mm 0.00 in0.0 mm 0.00 in0.0 mm
12:55 AM 60.5°F15.8°C 59.1°F15.1°C 95% 8.0 mph S12.9 kmh S 19.0 mph30.6 kmh 29.76 in1007.8 mb 0.00 in0.0 mm 0.00 in0.0 mm 0.00 in0.0 mm
12:50 AM 60.5°F15.8°C 59.1°F15.1°C 95% 9.0 mph S14.5 kmh S 17.0 mph27.4 kmh 29.77 in1008.1 mb 0.00 in0.0 mm 0.00 in0.0 mm 0.00 in0.0 mm
12:45 AM 60.4°F15.8°C 59.0°F15.0°C 95% 9.0 mph S14.5 kmh S 18.0 mph29.0 kmh 29.77 in1008.1 mb 0.00 in0.0 mm 0.00 in0.0 mm 0.00 in0.0 mm
12:40 AM 60.4°F15.8°C 59.0°F15.0°C 95% 10.0 mph S16.1 kmh S 19.0 mph30.6 kmh 29.77 in1008.1 mb 0.00 in0.0 mm 0.00 in0.0 mm 0.00 in0.0 mm
12:35 AM 60.4°F15.8°C 59.0°F15.0°C 95% 9.0 mph S14.5 kmh S 19.0 mph30.6 kmh 29.77 in1008.1 mb 0.00 in0.0 mm 0.00 in0.0 mm 0.00 in0.0 mm
12:30 AM 60.3°F15.7°C 58.9°F14.9°C 95% 8.0 mph S12.9 kmh S 17.0 mph27.4 kmh 29.77 in1008.1 mb 0.00 in0.0 mm 0.00 in0.0 mm 0.00 in0.0 mm
12:25 AM 60.3°F15.7°C 58.9°F14.9°C 95% 8.0 mph S12.9 kmh S 17.0 mph27.4 kmh 29.77 in1008.1 mb 0.00 in0.0 mm 0.00 in0.0 mm 0.00 in0.0 mm
12:20 AM 60.3°F15.7°C 58.9°F14.9°C 95% 9.0 mph S14.5 kmh S 19.0 mph30.6 kmh 29.77 in1008.1 mb 0.00 in0.0 mm 0.00 in0.0 mm 0.00 in0.0 mm
12:15 AM 60.3°F15.7°C 58.9°F14.9°C 95% 9.0 mph S14.5 kmh S 19.0 mph30.6 kmh 29.78 in1008.5 mb 0.00 in0.0 mm 0.00 in0.0 mm 0.00 in0.0 mm
12:10 AM 60.2°F15.7°C 58.8°F14.9°C 95% 8.0 mph S12.9 kmh S 18.0 mph29.0 kmh 29.78 in1008.5 mb 0.00 in0.0 mm 0.00 in0.0 mm 0.00 in0.0 mm
12:05 AM 60.2°F15.7°C 58.8°F14.9°C 95% 8.0 mph S12.9 kmh S 16.0 mph25.7 kmh 29.78 in1008.5 mb 0.00 in0.0 mm 0.00 in0.0 mm 0.00 in0.0 mm
12:00 AM 60.2°F15.7°C 58.8°F14.9°C 95% 9.0 mph S14.5 kmh S 17.0 mph27.4 kmh 29.78 in1008.5 mb 0.00 in0.0 mm 0.00 in0.0 mm 0.00 in0.0 mm